Weather at Adolfo Suárez Madrid–Barajas Airport

Public forecast

Using degrees Celsius for public forecast. Weather courtesy of forecast.io.

Current aviation weather report (METAR) for Adolfo Suárez Madrid–Barajas Airport

Report is more than 6 hours old.

Retrieved 2022/09/17 19:00 UTC (18 days ago):

LEMD 171900Z 36003KT CAVOK 25/09 Q1013 NOSIG

Aviation forecast (TAF) for Adolfo Suárez Madrid–Barajas Airport

Forecast is more than 12 hours old.

Retrieved 2022/09/17 18:35 UTC (18 days ago):

TAF LEMD 171700Z 1718/1824 VRB05KT CAVOK TX30/1815Z TN16/1806Z PROB30 TEMPO 1814/1818 FEW040TCU PROB30 TEMPO 1819/1824 16010KT